createdAt,value
2022-11-12T00:00:56.032Z,12.00
2022-11-12T00:03:45.554Z,17.67
2022-11-12T00:06:35.475Z,19.52
2022-11-12T00:09:24.632Z,41.17
2022-11-12T00:12:14.255Z,42.15
2022-11-12T00:15:03.392Z,48.92
2022-11-12T00:17:52.512Z,56.58
2022-11-12T00:20:42.564Z,59.03
2022-11-12T00:23:31.985Z,41.05
2022-11-12T00:26:21.273Z,51.30
2022-11-12T00:29:10.358Z,59.80
2022-11-12T00:31:59.521Z,45.25
2022-11-12T00:34:48.725Z,43.97
2022-11-12T00:37:37.404Z,48.78
2022-11-12T00:40:27.216Z,47.03
2022-11-12T00:43:16.361Z,50.92
2022-11-12T00:46:05.285Z,36.65
2022-11-12T00:48:54.255Z,25.13
2022-11-12T00:51:43.519Z,27.02
2022-11-12T00:54:32.579Z,25.90
2022-11-12T00:57:21.654Z,30.50
2022-11-12T01:00:16.730Z,24.10
2022-11-12T01:03:05.992Z,19.77
2022-11-12T01:05:55.024Z,29.08
2022-11-12T01:08:44.563Z,19.67
2022-11-12T01:11:34.240Z,17.15
2022-11-12T01:14:23.408Z,24.42
2022-11-12T01:17:12.426Z,22.90
2022-11-12T01:20:01.674Z,26.13
2022-11-12T01:22:51.327Z,19.95
2022-11-12T01:25:40.759Z,18.25
2022-11-12T01:28:31.084Z,14.70
2022-11-12T01:31:47.688Z,16.08
2022-11-12T01:34:37.410Z,17.42
2022-11-12T01:37:26.754Z,14.25
2022-11-12T01:40:16.469Z,15.13
2022-11-12T01:43:05.908Z,15.77
2022-11-12T01:45:55.689Z,13.15
2022-11-12T01:48:58.470Z,12.50
2022-11-12T01:51:51.666Z,14.68
2022-11-12T01:54:42.603Z,14.38
2022-11-12T01:57:44.829Z,11.93
2022-11-12T02:00:34.581Z,13.80
2022-11-12T02:03:26.504Z,13.35
2022-11-12T02:06:17.812Z,13.75
2022-11-12T02:09:07.645Z,15.27
2022-11-12T02:11:57.094Z,11.70
2022-11-12T02:14:46.351Z,12.55
2022-11-12T02:17:36.433Z,11.15
2022-11-12T02:20:25.701Z,10.60
2022-11-12T02:23:14.893Z,10.25
2022-11-12T02:26:04.021Z,10.27
2022-11-12T02:28:52.948Z,11.05
2022-11-12T02:31:42.081Z,10.38
2022-11-12T02:34:31.509Z,9.55
2022-11-12T02:37:20.624Z,10.00
2022-11-12T02:40:10.692Z,12.57
2022-11-12T02:43:00.485Z,10.43
2022-11-12T02:45:49.656Z,10.10
2022-11-12T02:48:39.026Z,9.70
2022-11-12T02:51:28.267Z,12.40
2022-11-12T02:54:17.530Z,10.93
2022-11-12T02:57:06.536Z,11.27
2022-11-12T02:59:55.783Z,9.90
2022-11-12T03:02:44.708Z,14.52
2022-11-12T03:05:36.017Z,10.63
2022-11-12T03:08:26.236Z,9.45
2022-11-12T03:11:17.863Z,9.57
2022-11-12T03:14:07.226Z,9.63
2022-11-12T03:16:56.452Z,8.77
2022-11-12T03:19:46.049Z,8.95
2022-11-12T03:22:34.992Z,11.77
2022-11-12T03:25:23.840Z,9.70
2022-11-12T03:28:17.902Z,8.68
2022-11-12T03:31:06.954Z,9.65
2022-11-12T03:33:56.238Z,8.98
2022-11-12T03:36:45.244Z,11.25
2022-11-12T03:39:34.580Z,9.57
2022-11-12T03:42:23.770Z,9.27
2022-11-12T03:45:13.172Z,10.90
2022-11-12T03:48:02.547Z,9.63
2022-11-12T03:50:51.858Z,10.32
2022-11-12T03:53:40.553Z,9.65
2022-11-12T03:56:29.335Z,10.05
2022-11-12T03:59:18.522Z,9.98
2022-11-12T04:02:07.497Z,9.63
2022-11-12T04:05:15.204Z,9.52
2022-11-12T04:08:29.843Z,9.00
2022-11-12T04:11:19.436Z,9.57
2022-11-12T04:14:08.492Z,11.25
2022-11-12T04:17:15.884Z,11.23
2022-11-12T04:20:23.445Z,8.73
2022-11-12T04:23:12.697Z,9.60
2022-11-12T04:26:20.009Z,13.57
2022-11-12T04:29:27.562Z,11.85
2022-11-12T04:32:16.578Z,10.07
2022-11-12T04:35:07.613Z,11.57
2022-11-12T04:37:56.624Z,14.63
2022-11-12T04:41:04.125Z,19.10
2022-11-12T04:44:11.215Z,14.40
2022-11-12T04:47:01.459Z,15.98
2022-11-12T04:49:50.406Z,14.65
2022-11-12T04:52:39.894Z,18.38
2022-11-12T04:55:29.259Z,12.95
2022-11-12T04:58:18.470Z,11.88
2022-11-12T05:01:08.757Z,16.65
2022-11-12T05:03:57.768Z,14.52
2022-11-12T05:06:53.131Z,12.80
2022-11-12T05:09:42.759Z,14.32
2022-11-12T05:12:32.526Z,12.98
2022-11-12T05:15:22.538Z,12.02
2022-11-12T05:18:11.663Z,12.65
2022-11-12T05:21:20.859Z,12.38
2022-11-12T05:24:27.423Z,13.07
2022-11-12T05:27:21.826Z,13.13
2022-11-12T05:30:11.718Z,11.30
2022-11-12T05:33:01.070Z,11.75
2022-11-12T05:35:50.370Z,14.15
2022-11-12T05:38:40.500Z,12.10
2022-11-12T05:41:44.992Z,12.40
2022-11-12T05:44:39.194Z,11.45
2022-11-12T05:47:28.610Z,13.80
2022-11-12T05:50:17.986Z,12.38
2022-11-12T05:53:07.063Z,11.35
2022-11-12T05:55:56.473Z,11.25
2022-11-12T05:58:45.603Z,11.73
2022-11-12T06:01:36.439Z,10.60
2022-11-12T06:04:25.822Z,11.52
2022-11-12T06:07:14.928Z,13.55
2022-11-12T06:10:03.929Z,13.70
2022-11-12T06:12:53.507Z,11.10
2022-11-12T06:15:42.994Z,11.13
2022-11-12T06:18:33.080Z,11.52
2022-11-12T06:21:25.903Z,10.45
2022-11-12T06:24:15.099Z,10.70
2022-11-12T06:27:04.054Z,10.43
2022-11-12T06:29:53.673Z,10.95
2022-11-12T06:32:42.917Z,15.07
2022-11-12T06:35:32.113Z,10.57
2022-11-12T06:38:21.375Z,11.77
2022-11-12T06:41:13.416Z,12.35
2022-11-12T06:44:02.398Z,10.40
2022-11-12T06:46:52.182Z,11.93
2022-11-12T06:49:41.286Z,10.73
2022-11-12T06:52:30.352Z,10.35
2022-11-12T06:55:19.420Z,10.13
2022-11-12T06:58:08.433Z,10.63
2022-11-12T07:00:57.945Z,10.45
2022-11-12T07:03:47.671Z,10.38
2022-11-12T07:06:36.979Z,10.55
2022-11-12T07:09:26.571Z,10.18
2022-11-12T07:12:15.746Z,10.40
2022-11-12T07:15:05.053Z,12.38
2022-11-12T07:17:54.048Z,14.05
2022-11-12T07:20:43.202Z,10.93
2022-11-12T07:23:34.703Z,12.02
2022-11-12T07:26:31.127Z,16.70
2022-11-12T07:29:35.599Z,15.98
2022-11-12T07:32:29.257Z,17.92
2022-11-12T07:35:18.500Z,16.30
2022-11-12T07:38:07.811Z,21.38
2022-11-12T07:41:03.744Z,21.60
2022-11-12T07:43:55.010Z,16.08
2022-11-12T07:46:44.226Z,22.73
2022-11-12T07:49:33.468Z,19.48
2022-11-12T07:52:23.116Z,16.90
2022-11-12T07:55:12.088Z,17.55
2022-11-12T07:58:02.088Z,16.38
2022-11-12T08:00:52.622Z,18.90
2022-11-12T08:03:41.638Z,18.08
2022-11-12T08:06:32.196Z,25.60
2022-11-12T08:09:21.127Z,24.58
2022-11-12T08:12:10.368Z,19.52
2022-11-12T08:14:59.627Z,18.42
2022-11-12T08:17:48.495Z,22.48
2022-11-12T08:20:37.563Z,19.13
2022-11-12T08:23:26.671Z,20.40
2022-11-12T08:26:18.595Z,19.48
2022-11-12T08:29:08.815Z,16.15
2022-11-12T08:31:57.992Z,12.52
2022-11-12T08:34:47.660Z,14.82
2022-11-12T08:37:36.980Z,18.45
2022-11-12T08:40:26.000Z,15.93
2022-11-12T08:43:15.169Z,13.38
2022-11-12T08:46:05.812Z,13.50
2022-11-12T08:48:55.581Z,12.90
2022-11-12T08:51:44.973Z,12.63
2022-11-12T08:54:34.660Z,17.80
2022-11-12T08:57:23.704Z,13.27
2022-11-12T09:00:16.530Z,13.30
2022-11-12T09:03:07.924Z,12.48
2022-11-12T09:05:56.937Z,11.60
2022-11-12T09:08:46.128Z,12.88
2022-11-12T09:11:35.268Z,11.80
2022-11-12T09:14:24.468Z,14.27
2022-11-12T09:17:13.976Z,15.18
2022-11-12T09:20:03.436Z,27.10
2022-11-12T09:22:52.739Z,24.70
2022-11-12T09:25:43.068Z,27.55
2022-11-12T09:28:31.991Z,45.17
2022-11-12T09:31:21.532Z,72.10
2022-11-12T09:34:10.523Z,75.13
2022-11-12T09:36:59.762Z,83.07
2022-11-12T09:39:49.221Z,74.35
2022-11-12T09:42:38.872Z,72.40
2022-11-12T09:45:34.375Z,68.22
2022-11-12T09:48:34.297Z,76.25
2022-11-12T09:51:33.804Z,56.17
2022-11-12T09:54:27.169Z,32.42
2022-11-12T09:57:16.244Z,28.33
2022-11-12T10:00:15.981Z,23.42
2022-11-12T10:03:31.138Z,23.52
2022-11-12T10:06:31.453Z,19.15
2022-11-12T10:09:31.720Z,17.10
2022-11-12T10:12:38.156Z,18.83
2022-11-12T10:16:03.960Z,16.48
2022-11-12T10:19:06.380Z,17.83
2022-11-12T10:22:09.220Z,17.40
2022-11-12T10:24:59.683Z,16.05
2022-11-12T10:27:58.036Z,16.00
2022-11-12T10:30:47.939Z,14.98
2022-11-12T10:33:37.231Z,14.65
2022-11-12T10:36:30.274Z,14.65
2022-11-12T10:39:39.044Z,13.30
2022-11-12T10:42:28.598Z,14.57
2022-11-12T10:45:23.824Z,13.50
2022-11-12T10:48:35.740Z,12.82
2022-11-12T10:51:34.805Z,13.27
2022-11-12T10:54:29.696Z,14.40
2022-11-12T10:57:26.989Z,14.35
2022-11-12T11:00:20.838Z,13.98
2022-11-12T11:03:29.158Z,15.70
2022-11-12T11:06:18.223Z,15.70
2022-11-12T11:09:18.571Z,17.45
2022-11-12T11:12:24.123Z,21.90
2022-11-12T11:15:15.825Z,28.80
2022-11-12T11:18:05.031Z,22.73
2022-11-12T11:21:10.493Z,25.88
2022-11-12T11:24:05.752Z,25.63
2022-11-12T11:27:28.403Z,26.17
2022-11-12T11:30:22.583Z,29.38
2022-11-12T11:33:23.348Z,25.75
2022-11-12T11:36:34.831Z,29.88
2022-11-12T11:39:58.757Z,24.75
2022-11-12T11:43:06.346Z,21.10
2022-11-12T11:46:06.976Z,30.85
2022-11-12T11:49:18.847Z,33.47
2022-11-12T11:52:36.250Z,37.43
2022-11-12T11:55:40.050Z,33.25
2022-11-12T11:58:55.313Z,34.83
2022-11-12T12:01:56.038Z,29.40
2022-11-12T12:05:07.691Z,26.30
2022-11-12T12:08:33.481Z,25.02
2022-11-12T12:11:25.967Z,32.40
2022-11-12T12:17:30.689Z,24.27
2022-11-12T12:20:43.009Z,23.92
2022-11-12T12:24:12.618Z,28.63
2022-11-12T12:27:05.236Z,24.33
2022-11-12T12:30:18.610Z,26.30
2022-11-12T12:33:17.271Z,25.40
2022-11-12T12:36:28.932Z,26.42
2022-11-12T12:39:23.076Z,24.27
2022-11-12T12:42:28.288Z,26.25
2022-11-12T12:45:44.355Z,25.60
2022-11-12T12:48:45.619Z,25.23
2022-11-12T12:51:37.359Z,28.02
2022-11-12T12:54:41.368Z,27.40
2022-11-12T12:57:33.049Z,30.50
2022-11-12T13:00:31.925Z,23.48
2022-11-12T13:03:46.441Z,24.85
2022-11-12T13:06:41.209Z,18.67
2022-11-12T13:09:31.412Z,15.45
2022-11-12T13:12:20.758Z,27.52
2022-11-12T13:15:17.140Z,19.80
2022-11-12T13:18:17.334Z,15.10
2022-11-12T13:21:18.029Z,22.60
2022-11-12T13:24:12.426Z,15.50
2022-11-12T13:27:02.959Z,14.02
2022-11-12T13:29:51.853Z,15.55
2022-11-12T13:33:20.408Z,13.98
2022-11-12T13:36:29.676Z,12.88
2022-11-12T13:39:22.062Z,15.95
2022-11-12T13:45:28.048Z,13.05
2022-11-12T13:48:24.879Z,12.07
2022-11-12T13:51:35.748Z,16.70
2022-11-12T13:54:31.968Z,12.25
2022-11-12T13:57:26.442Z,11.32
2022-11-12T14:00:23.635Z,11.50
2022-11-12T14:03:20.237Z,11.90
2022-11-12T14:06:33.656Z,11.48
2022-11-12T14:12:43.684Z,10.13
2022-11-12T14:16:07.771Z,13.65
2022-11-12T14:19:14.982Z,11.15
2022-11-12T14:22:18.310Z,9.85
2022-11-12T14:25:25.446Z,10.13
2022-11-12T14:28:29.343Z,9.80
2022-11-12T14:31:26.192Z,10.32
2022-11-12T14:34:29.327Z,11.23
2022-11-12T14:37:42.887Z,10.80
2022-11-12T14:40:37.175Z,9.55
2022-11-12T14:43:33.295Z,10.52
2022-11-12T14:46:49.859Z,10.38
2022-11-12T14:49:45.192Z,9.98
2022-11-12T14:52:39.680Z,10.95
2022-11-12T14:55:35.333Z,10.38
2022-11-12T14:58:25.969Z,10.77
2022-11-12T15:04:44.474Z,10.25
2022-11-12T15:07:52.563Z,10.60
2022-11-12T15:10:42.664Z,10.90
2022-11-12T15:13:41.867Z,11.32
2022-11-12T15:16:36.092Z,10.73
2022-11-12T15:19:29.760Z,11.00
2022-11-12T15:22:24.093Z,11.50
2022-11-12T15:25:28.939Z,20.77
2022-11-12T15:28:26.251Z,11.60
2022-11-12T15:31:22.416Z,11.35
2022-11-12T15:34:26.472Z,11.88
2022-11-12T15:37:27.185Z,11.32
2022-11-12T15:40:22.528Z,11.80
2022-11-12T15:43:20.644Z,10.77
2022-11-12T15:46:16.816Z,12.07
2022-11-12T15:49:13.442Z,11.25
2022-11-12T15:52:02.496Z,12.00
2022-11-12T15:54:51.972Z,10.77
2022-11-12T15:57:50.906Z,11.40
2022-11-12T16:00:41.118Z,11.73
2022-11-12T16:03:30.410Z,11.38
2022-11-12T16:06:20.130Z,14.02
2022-11-12T16:09:10.401Z,11.27
2022-11-12T16:12:00.481Z,11.60
2022-11-12T16:14:49.348Z,11.65
2022-11-12T16:17:38.631Z,12.73
2022-11-12T16:20:33.700Z,11.88
2022-11-12T16:23:22.857Z,12.35
2022-11-12T16:26:16.774Z,11.32
2022-11-12T16:29:13.533Z,12.02
2022-11-12T16:32:03.166Z,11.55
2022-11-12T16:34:57.006Z,12.95
2022-11-12T16:37:50.153Z,13.05
2022-11-12T16:40:42.731Z,12.57
2022-11-12T16:43:31.835Z,11.73
2022-11-12T16:46:32.282Z,12.57
2022-11-12T16:49:22.985Z,13.25
2022-11-12T16:52:12.558Z,12.85
2022-11-12T16:55:04.570Z,14.40
2022-11-12T16:57:54.606Z,12.57
2022-11-12T17:00:47.815Z,13.65
2022-11-12T17:03:36.947Z,12.70
2022-11-12T17:06:38.212Z,12.48
2022-11-12T17:09:28.840Z,14.00
2022-11-12T17:12:18.017Z,13.10
2022-11-12T17:15:08.739Z,13.15
2022-11-12T17:17:57.741Z,12.77
2022-11-12T17:20:51.032Z,13.07
2022-11-12T17:23:40.648Z,13.10
2022-11-12T17:26:29.930Z,14.15
2022-11-12T17:29:19.085Z,15.85
2022-11-12T17:32:08.199Z,16.13
2022-11-12T17:34:57.367Z,16.17
2022-11-12T17:37:46.488Z,14.05
2022-11-12T17:40:36.491Z,14.65
2022-11-12T17:43:26.377Z,13.65
2022-11-12T17:46:16.462Z,14.27
2022-11-12T17:49:05.422Z,13.30
2022-11-12T17:51:54.756Z,13.32
2022-11-12T17:54:43.861Z,13.57
2022-11-12T17:57:33.265Z,13.57
2022-11-12T18:00:22.743Z,14.30
2022-11-12T18:03:11.993Z,13.68
2022-11-12T18:06:01.932Z,14.73
2022-11-12T18:08:58.614Z,13.88
2022-11-12T18:11:51.077Z,14.40
2022-11-12T18:17:28.770Z,14.15
2022-11-12T18:20:18.672Z,13.90
2022-11-12T18:23:07.617Z,15.07
2022-11-12T18:25:56.588Z,14.30
2022-11-12T18:28:56.842Z,14.45
2022-11-12T18:31:46.887Z,13.65
2022-11-12T18:34:36.180Z,14.98
2022-11-12T18:37:25.500Z,14.23
2022-11-12T18:40:14.822Z,14.20
2022-11-12T18:43:03.787Z,14.30
2022-11-12T18:45:57.116Z,14.35
2022-11-12T18:48:46.296Z,14.23
2022-11-12T18:51:35.603Z,14.88
2022-11-12T18:54:25.896Z,13.48
2022-11-12T18:57:14.654Z,14.88
2022-11-12T19:00:03.664Z,15.80
2022-11-12T19:02:52.761Z,15.02
2022-11-12T19:05:41.978Z,14.25
2022-11-12T19:08:31.134Z,14.20
2022-11-12T19:11:23.239Z,15.20
2022-11-12T19:17:01.453Z,15.02
2022-11-12T19:19:50.357Z,15.50
2022-11-12T19:22:39.667Z,14.85
2022-11-12T19:25:28.991Z,17.02
2022-11-12T19:28:18.299Z,16.15
2022-11-12T19:31:09.466Z,15.00
2022-11-12T19:33:59.045Z,15.75
2022-11-12T19:36:48.470Z,15.82
2022-11-12T19:39:42.279Z,15.85
2022-11-12T19:42:31.293Z,15.75
2022-11-12T19:45:20.599Z,15.75
2022-11-12T19:48:09.962Z,17.23
2022-11-12T19:51:08.639Z,16.38
2022-11-12T19:53:57.537Z,16.40
2022-11-12T19:56:46.991Z,16.52
2022-11-12T19:59:36.071Z,15.75
2022-11-12T20:02:25.112Z,15.98
2022-11-12T20:05:14.679Z,16.10
2022-11-12T20:08:03.825Z,16.90
2022-11-12T20:10:52.847Z,15.30
2022-11-12T20:13:41.915Z,18.00
2022-11-12T20:16:30.845Z,16.08
2022-11-12T20:19:20.026Z,16.65
2022-11-12T20:22:09.487Z,16.00
2022-11-12T20:24:59.112Z,17.25
2022-11-12T20:27:48.033Z,16.17
2022-11-12T20:30:37.055Z,16.40
2022-11-12T20:33:26.459Z,16.25
2022-11-12T20:36:17.890Z,16.10
2022-11-12T20:39:07.617Z,16.25
2022-11-12T20:41:56.495Z,15.63
2022-11-12T20:44:45.821Z,16.02
2022-11-12T20:47:35.325Z,15.77
2022-11-12T20:50:24.709Z,16.30
2022-11-12T20:53:14.351Z,15.57
2022-11-12T20:56:15.943Z,19.38
2022-11-12T20:59:05.254Z,16.13
2022-11-12T21:01:58.773Z,16.17
2022-11-12T21:04:49.470Z,16.67
2022-11-12T21:07:38.278Z,15.52
2022-11-12T21:10:27.499Z,15.95
2022-11-12T21:13:17.442Z,15.57
2022-11-12T21:16:07.973Z,16.48
2022-11-12T21:18:56.772Z,16.00
2022-11-12T21:21:46.443Z,15.45
2022-11-12T21:24:35.258Z,17.77
2022-11-12T21:27:24.120Z,16.40
2022-11-12T21:30:13.559Z,16.23
2022-11-12T21:33:02.475Z,16.55
2022-11-12T21:35:54.797Z,17.10
2022-11-12T21:41:33.541Z,16.17
2022-11-12T21:44:23.187Z,17.40
2022-11-12T21:47:12.411Z,16.48
2022-11-12T21:50:01.701Z,16.50
2022-11-12T21:52:51.505Z,15.80
2022-11-12T21:55:40.345Z,15.77
2022-11-12T21:58:30.810Z,16.45
2022-11-12T22:01:26.521Z,15.73
2022-11-12T22:04:18.483Z,16.27
2022-11-12T22:07:08.204Z,17.38
2022-11-12T22:09:57.496Z,16.33
2022-11-12T22:13:11.846Z,16.42
2022-11-12T22:15:56.387Z,17.25
2022-11-12T22:18:47.382Z,16.85
2022-11-12T22:21:39.935Z,17.58
2022-11-12T22:24:29.142Z,17.48
2022-11-12T22:27:18.547Z,16.92
2022-11-12T22:30:08.343Z,17.08
2022-11-12T22:32:57.314Z,17.70
2022-11-12T22:35:46.754Z,18.00
2022-11-12T22:38:38.409Z,17.27
2022-11-12T22:41:30.327Z,17.15
2022-11-12T22:44:20.551Z,17.65
2022-11-12T22:47:09.722Z,17.63
2022-11-12T22:49:59.510Z,17.75
2022-11-12T22:52:50.233Z,17.73
2022-11-12T22:55:39.888Z,18.30
2022-11-12T22:58:29.153Z,18.08
2022-11-12T23:01:25.954Z,18.33
2022-11-12T23:04:14.878Z,16.70
2022-11-12T23:07:04.197Z,18.98
2022-11-12T23:09:53.562Z,17.27
2022-11-12T23:12:42.866Z,18.40
2022-11-12T23:15:32.836Z,15.82
2022-11-12T23:18:21.789Z,17.55
2022-11-12T23:21:13.698Z,14.80
2022-11-12T23:24:02.926Z,15.88
2022-11-12T23:26:52.123Z,15.68
2022-11-12T23:29:41.667Z,15.48
2022-11-12T23:32:30.714Z,16.17
2022-11-12T23:35:20.437Z,16.48
2022-11-12T23:38:09.498Z,16.77
2022-11-12T23:40:58.515Z,18.00
2022-11-12T23:43:48.000Z,15.73
2022-11-12T23:46:37.387Z,17.48
2022-11-12T23:49:26.634Z,19.60
2022-11-12T23:52:17.038Z,15.95
2022-11-12T23:55:07.764Z,15.77
2022-11-12T23:57:57.045Z,16.45
